Time;durP1;ratioP1;P1;durP2;ratioP2;P2;SDS_P1;SDS_P2;PMS_P1;PMS_P2;Temp;Humidity;BMP_temperature;BMP_pressure;BME280_temperature;BME280_humidity;BME280_pressure;Samples;Min_cycle;Max_cycle;Signal;HPM_P1;HPM_P2
2022/01/17 00:01:07;;;;;;;26.55;20.45;;;;;;;-4.46;95.35;97203.13;5012938;28;20033;-64
2022/01/17 00:03:33;;;;;;;26.38;19.55;;;;;;;-4.49;95.20;97195.44;5013053;28;20036;-64
2022/01/17 00:05:59;;;;;;;27.48;19.40;;;;;;;-4.53;95.21;97196.31;5011801;28;20032;-64
2022/01/17 00:08:25;;;;;;;26.30;17.80;;;;;;;-4.53;95.38;97190.31;5013057;28;20105;-63
2022/01/17 00:10:50;;;;;;;25.15;18.75;;;;;;;-4.50;96.01;97187.75;5011258;28;20080;-63
2022/01/17 00:13:24;;;;;;;29.25;18.92;;;;;;;-4.46;94.70;97192.84;5012652;28;20029;-63
2022/01/17 00:15:56;;;;;;;26.98;19.92;;;;;;;-4.39;94.59;97180.78;5012775;28;20537;-63
2022/01/17 00:18:29;;;;;;;41.22;19.80;;;;;;;-4.37;94.31;97189.34;5013012;28;20040;-63
2022/01/17 00:20:56;;;;;;;24.30;18.55;;;;;;;-4.41;94.57;97194.53;5012700;28;20022;-64
2022/01/17 00:23:22;;;;;;;25.20;18.65;;;;;;;-4.45;95.14;97209.13;5012571;28;20026;-63
2022/01/17 00:25:47;;;;;;;24.58;17.92;;;;;;;-4.50;95.11;97201.44;5012773;28;20412;-63
2022/01/17 00:28:12;;;;;;;24.98;17.45;;;;;;;-4.52;95.68;97198.03;5012594;28;20065;-63
2022/01/17 00:30:38;;;;;;;23.73;16.70;;;;;;;-4.50;96.25;97198.03;5013074;28;20057;-63
2022/01/17 00:33:03;;;;;;;26.77;16.77;;;;;;;-4.53;96.28;97196.31;5012502;28;20109;-64
2022/01/17 00:35:28;;;;;;;22.20;15.85;;;;;;;-4.58;95.14;97203.22;5012477;28;20034;-63
2022/01/17 00:37:54;;;;;;;23.30;16.88;;;;;;;-4.61;95.99;97205.84;5011124;28;20088;-63
2022/01/17 00:40:20;;;;;;;24.30;16.45;;;;;;;-4.62;95.95;97206.69;5012243;28;20054;-63
2022/01/17 00:42:46;;;;;;;23.05;15.90;;;;;;;-4.62;95.91;97204.13;5013035;28;20026;-63
2022/01/17 00:45:13;;;;;;;21.40;14.93;;;;;;;-4.65;96.67;97205.00;5011038;28;20405;-63
2022/01/17 00:47:40;;;;;;;16.35;13.68;;;;;;;-4.65;96.23;97211.84;5012356;28;20088;-63
2022/01/17 00:50:07;;;;;;;18.83;15.00;;;;;;;-4.68;95.70;97212.72;5012817;28;20026;-63
2022/01/17 00:52:32;;;;;;;17.15;13.95;;;;;;;-4.65;95.81;97210.13;5012195;28;20030;-63
2022/01/17 00:54:58;;;;;;;16.33;12.70;;;;;;;-4.65;95.27;97228.13;5012178;28;20029;-63
2022/01/17 00:57:23;;;;;;;14.80;12.00;;;;;;;-4.68;95.49;97227.28;5012059;28;20025;-63
2022/01/17 00:59:49;;;;;;;15.27;12.63;;;;;;;-4.69;95.58;97230.72;5012202;28;20065;-63
2022/01/17 01:02:14;;;;;;;16.55;12.68;;;;;;;-4.72;96.07;97231.63;5003284;28;20076;-63
2022/01/17 01:04:40;;;;;;;16.92;12.32;;;;;;;-4.78;95.53;97242.78;5011997;28;20021;-63
2022/01/17 01:07:05;;;;;;;14.70;11.68;;;;;;;-4.80;95.36;97234.22;5012088;28;20026;-63
2022/01/17 01:09:36;;;;;;;16.58;12.18;;;;;;;-4.84;95.75;97240.25;5011914;28;20030;-63
2022/01/17 01:12:02;;;;;;;16.83;11.93;;;;;;;-4.86;96.50;97238.53;5011814;28;20387;-63
2022/01/17 01:14:27;;;;;;;14.00;11.27;;;;;;;-4.89;96.31;97240.28;5011935;28;20014;-63
2022/01/17 01:16:56;;;;;;;12.25;10.20;;;;;;;-4.78;95.65;97247.91;5011698;28;20049;-63
2022/01/17 01:29:58;;;;;;;9.75;8.75;;;;;;;-4.85;95.49;97255.66;5009598;28;20064;-63
2022/01/17 01:32:29;;;;;;;11.18;9.23;;;;;;;-4.87;96.36;97260.81;5009767;28;20045;-63
2022/01/17 01:34:58;;;;;;;12.65;10.00;;;;;;;-4.90;96.58;97263.41;5011595;28;20034;-62
2022/01/17 01:37:23;;;;;;;28.83;19.00;;;;;;;-4.60;94.65;97262.34;5011425;28;20488;-63
2022/01/17 01:39:52;;;;;;;27.83;18.60;;;;;;;-4.54;94.35;97263.16;5011548;28;20026;-62
2022/01/17 01:42:19;;;;;;;26.23;20.65;;;;;;;-4.68;96.91;97260.69;5010741;28;20118;-63
2022/01/17 01:44:48;;;;;;;34.00;22.38;;;;;;;-4.76;97.62;97261.59;5010788;28;20500;-63
2022/01/17 01:47:14;;;;;;;28.88;20.92;;;;;;;-4.79;97.45;97261.63;5009302;28;20034;-62
2022/01/17 01:49:39;;;;;;;33.10;21.83;;;;;;;-4.81;96.92;97254.78;5011428;28;20030;-63
2022/01/17 01:52:05;;;;;;;33.10;21.75;;;;;;;-4.84;96.86;97255.69;5010810;28;20041;-62
2022/01/17 01:54:31;;;;;;;33.17;21.58;;;;;;;-4.91;96.86;97251.41;5011189;28;20489;-63
2022/01/17 01:56:57;;;;;;;35.10;23.48;;;;;;;-4.97;97.50;97254.91;5011605;28;20112;-63
2022/01/17 01:59:22;;;;;;;39.40;26.20;;;;;;;-5.00;98.00;97254.88;5010927;28;20029;-63
2022/01/17 02:01:49;;;;;;;34.17;24.17;;;;;;;-5.04;97.59;97260.91;5011363;28;20045;-63
2022/01/17 02:04:15;;;;;;;35.88;24.67;;;;;;;-5.07;97.10;97251.53;5010955;28;20026;-62
2022/01/17 02:06:41;;;;;;;37.05;24.55;;;;;;;-5.13;97.19;97260.97;5011249;28;20045;-62
2022/01/17 02:09:06;;;;;;;38.75;25.10;;;;;;;-5.17;97.23;97252.41;5011033;28;20477;-62
2022/01/17 02:11:33;;;;;;;42.90;26.48;;;;;;;-5.19;97.42;97260.13;5011060;28;20110;-62
2022/01/17 02:13:58;;;;;;;36.58;24.10;;;;;;;-5.19;97.25;97247.28;5010963;28;20026;-62
2022/01/17 02:16:24;;;;;;;36.08;23.00;;;;;;;-5.13;96.03;97250.69;5011394;28;20048;-62
2022/01/17 02:18:50;;;;;;;32.13;23.77;;;;;;;-5.11;96.57;97261.81;5011062;28;20060;-62
2022/01/17 02:23:48;;;;;;;43.30;27.13;;;;;;;-5.26;97.86;97263.56;5011087;28;20033;-62
2022/01/17 02:26:15;;;;;;;46.45;30.98;;;;;;;-5.24;98.18;97263.56;5010936;28;20101;-62
2022/01/17 02:28:48;;;;;;;59.58;35.60;;;;;;;-5.22;97.66;97262.69;5010827;28;20030;-62
2022/01/17 02:31:14;;;;;;;57.58;36.25;;;;;;;-5.22;97.08;97267.81;5010867;28;20033;-62
2022/01/17 02:33:40;;;;;;;56.03;36.25;;;;;;;-5.25;97.46;97272.16;5013615;28;20029;-62
2022/01/17 02:36:06;;;;;;;58.85;32.45;;;;;;;-5.26;97.98;97267.88;5014858;28;20363;-63
2022/01/17 02:38:32;;;;;;;56.30;33.67;;;;;;;-5.29;97.78;97273.88;5015137;28;20026;-62
2022/01/17 02:40:58;;;;;;;54.60;35.33;;;;;;;-5.32;97.90;97276.44;5014688;28;20452;-62
2022/01/17 02:43:26;;;;;;;54.17;34.78;;;;;;;-5.35;96.76;97279.03;5014626;28;20033;-62
2022/01/17 02:48:27;;;;;;;56.10;35.13;;;;;;;-5.37;96.72;97268.75;5014575;28;20062;-62
2022/01/17 02:50:53;;;;;;;54.05;33.88;;;;;;;-5.41;96.75;97268.78;5011862;28;20064;-62
2022/01/17 02:53:18;;;;;;;52.00;32.75;;;;;;;-5.44;97.65;97267.06;5014717;28;20473;-62
2022/01/17 02:55:50;;;;;;;57.85;32.65;;;;;;;-5.42;97.56;97269.63;5014318;28;20065;-62
2022/01/17 02:58:18;;;;;;;53.15;33.17;;;;;;;-5.45;97.90;97255.09;5007416;28;20413;-62
2022/01/17 03:00:43;;;;;;;52.90;34.17;;;;;;;-5.46;97.71;97249.09;5014282;28;20546;-62
2022/01/17 03:03:17;;;;;;;48.97;30.60;;;;;;;-5.46;97.08;97245.69;5014219;28;20061;-62
2022/01/17 03:05:43;;;;;;;53.65;29.38;;;;;;;-5.50;97.27;97244.00;5014287;28;20029;-62
2022/01/17 03:08:09;;;;;;;44.92;29.48;;;;;;;-5.56;97.77;97232.03;5014048;28;20117;-62
2022/01/17 03:13:15;;;;;;;45.47;26.83;;;;;;;-5.59;97.73;97237.19;5014289;28;20050;-62
2022/01/17 03:15:41;;;;;;;39.85;24.73;;;;;;;-5.61;97.07;97238.91;5014152;28;20033;-62
2022/01/17 03:18:08;;;;;;;40.60;27.08;;;;;;;-5.61;97.20;97234.59;5013893;28;20046;-62
2022/01/17 03:20:39;;;;;;;41.78;27.83;;;;;;;-5.62;97.35;97229.50;5014142;28;20030;-62
2022/01/17 03:23:06;;;;;;;29.73;20.65;;;;;;;-5.61;96.97;97229.47;5013954;28;20033;-62
2022/01/17 03:25:32;;;;;;;27.90;18.75;;;;;;;-5.55;96.47;97244.00;5013920;28;20570;-62
2022/01/17 03:27:58;;;;;;;29.10;18.85;;;;;;;-5.56;96.81;97242.31;5012663;28;20037;-62
2022/01/17 03:30:24;;;;;;;27.25;17.55;;;;;;;-5.62;96.81;97245.72;5013456;28;20045;-62
2022/01/17 03:32:50;;;;;;;27.02;19.92;;;;;;;-5.66;96.91;97249.19;5013710;28;20140;-62
2022/01/17 03:35:16;;;;;;;27.23;19.70;;;;;;;-5.68;97.52;97250.03;5005050;28;20018;-61
2022/01/17 03:37:42;;;;;;;27.58;19.77;;;;;;;-5.66;97.18;97250.88;5013669;28;20025;-62
2022/01/17 03:40:08;;;;;;;28.02;19.48;;;;;;;-5.63;96.44;97251.72;5013553;28;20026;-62
2022/01/17 03:42:35;;;;;;;31.02;21.73;;;;;;;-5.60;96.52;97258.56;5013387;28;20481;-62
2022/01/17 03:45:03;;;;;;;26.13;19.20;;;;;;;-5.72;96.36;97271.44;5012615;28;20022;-62
2022/01/17 03:47:28;;;;;;;27.88;19.50;;;;;;;-5.78;97.29;97262.88;5013423;28;20042;-62
2022/01/17 03:49:53;;;;;;;31.13;20.15;;;;;;;-5.77;97.10;97258.59;5013488;28;20022;-61
2022/01/17 03:52:19;;;;;;;24.77;18.10;;;;;;;-5.78;97.33;97257.75;5013218;28;20037;-62
2022/01/17 03:54:44;;;;;;;23.05;15.68;;;;;;;-5.70;97.79;97267.13;5013883;28;20108;-61
2022/01/17 03:57:09;;;;;;;20.75;15.45;;;;;;;-5.62;98.61;97262.88;5013288;28;20121;-61
2022/01/17 03:59:35;;;;;;;20.00;15.27;;;;;;;-5.55;98.52;97264.53;5013374;28;20448;-62
2022/01/17 04:02:01;;;;;;;19.02;14.70;;;;;;;-5.51;98.19;97270.53;5013185;28;20068;-61
2022/01/17 04:04:26;;;;;;;24.83;15.65;;;;;;;-5.51;98.58;97271.38;5013108;28;20029;-61
2022/01/17 04:06:52;;;;;;;20.83;14.77;;;;;;;-5.52;98.74;97268.81;5013064;28;20033;-61
2022/01/17 04:09:17;;;;;;;22.92;14.98;;;;;;;-5.57;98.79;97270.53;5013336;28;20113;-61
2022/01/17 04:11:43;;;;;;;17.38;14.27;;;;;;;-5.61;98.59;97275.66;5013184;28;20092;-61
2022/01/17 04:14:09;;;;;;;21.58;15.38;;;;;;;-5.61;98.56;97277.41;5012888;28;20121;-61
2022/01/17 04:16:35;;;;;;;22.95;14.80;;;;;;;-5.67;98.34;97279.97;5012922;28;20045;-61
2022/01/17 04:19:01;;;;;;;19.38;15.10;;;;;;;-5.71;97.96;97285.97;5012840;28;20032;-62
2022/01/17 04:21:31;;;;;;;23.33;14.85;;;;;;;-5.72;98.56;97280.00;5012982;28;20036;-62
2022/01/17 04:23:57;;;;;;;18.40;13.75;;;;;;;-5.70;98.37;97279.97;5012877;28;20052;-61
2022/01/17 04:26:23;;;;;;;19.23;13.93;;;;;;;-5.62;98.58;97275.69;5012222;28;20579;-62
2022/01/17 04:28:48;;;;;;;21.10;14.15;;;;;;;-5.32;96.51;97276.44;5013275;28;20116;-61
2022/01/17 04:31:14;;;;;;;26.10;18.80;;;;;;;-5.34;96.77;97275.59;5012525;28;20544;-61
2022/01/17 04:33:39;;;;;;;29.63;21.85;;;;;;;-5.29;96.51;97275.59;5012542;28;20497;-62
2022/01/17 04:36:07;;;;;;;31.10;19.85;;;;;;;-5.49;98.39;97276.50;5012383;28;20049;-62
2022/01/17 04:38:33;;;;;;;25.52;18.73;;;;;;;-5.62;99.31;97281.66;5007928;28;20116;-62
2022/01/17 04:41:04;;;;;;;24.10;17.75;;;;;;;-5.68;99.89;97297.09;5012445;28;20547;-61
2022/01/17 04:46:02;;;;;;;21.30;16.00;;;;;;;-5.70;99.21;97290.22;5012742;28;20033;-61
2022/01/17 04:48:28;;;;;;;22.65;15.93;;;;;;;-5.76;99.37;97296.22;5012269;28;20034;-61
2022/01/17 04:50:53;;;;;;;19.83;14.35;;;;;;;-5.82;98.58;97289.41;5011541;28;20101;-61
2022/01/17 04:53:20;;;;;;;20.95;14.52;;;;;;;-5.81;98.22;97292.81;5012002;28;20029;-61
2022/01/17 04:55:47;;;;;;;18.33;15.27;;;;;;;-5.91;98.57;97300.53;5011325;28;20103;-61
2022/01/17 04:58:13;;;;;;;21.80;16.88;;;;;;;-5.95;98.43;97297.97;5012244;28;20045;-61
2022/01/17 05:00:46;;;;;;;21.33;16.30;;;;;;;-6.02;99.60;97291.19;5012092;28;20029;-62
2022/01/17 05:03:15;;;;;;;20.25;14.57;;;;;;;-6.02;99.40;97288.63;5011076;28;20025;-61
2022/01/17 05:05:41;;;;;;;18.92;14.13;;;;;;;-5.97;99.58;97286.88;5011168;28;20030;-61
2022/01/17 05:08:06;;;;;;;19.42;13.88;;;;;;;-5.89;100.00;97300.53;5011205;28;20025;-62
2022/01/17 05:10:32;;;;;;;15.52;13.57;;;;;;;-5.85;100.00;97289.44;5011006;28;20037;-62
2022/01/17 05:12:57;;;;;;;20.48;15.27;;;;;;;-5.79;100.00;97281.72;5011114;28;20022;-61
2022/01/17 05:20:35;;;;;;;19.63;15.48;;;;;;;-5.75;99.26;97301.38;5006950;28;20048;-62
2022/01/17 05:23:01;;;;;;;17.02;13.75;;;;;;;-5.71;99.85;97298.78;5009749;28;20190;-62
2022/01/17 05:25:27;;;;;;;17.92;15.30;;;;;;;-5.70;100.00;97297.94;5011680;28;20109;-62
2022/01/17 05:27:52;;;;;;;17.67;13.70;;;;;;;-5.68;100.00;97304.78;5011590;28;20029;-62
2022/01/17 05:30:20;;;;;;;18.30;13.80;;;;;;;-5.69;100.00;97305.66;5011397;28;20584;-62
2022/01/17 05:32:46;;;;;;;17.58;14.73;;;;;;;-5.67;100.00;97308.19;5011607;28;20397;-62
2022/01/17 05:35:13;;;;;;;47.75;33.47;;;;;;;-5.62;99.74;97311.63;5011375;28;20036;-62
2022/01/17 05:37:39;;;;;;;37.00;27.30;;;;;;;-5.68;100.00;97316.75;5011859;28;20029;-62
2022/01/17 05:40:07;;;;;;;27.80;21.00;;;;;;;-5.72;100.00;97312.47;5011652;28;20026;-62
2022/01/17 05:42:32;;;;;;;28.25;20.15;;;;;;;-5.71;100.00;97309.06;5011254;28;20186;-62
2022/01/17 05:44:58;;;;;;;27.23;20.40;;;;;;;-5.70;100.00;97297.94;5011395;28;20497;-62
2022/01/17 05:47:23;;;;;;;23.17;19.23;;;;;;;-5.68;100.00;97304.78;5010810;28;20037;-62
2022/01/17 05:49:49;;;;;;;26.58;18.85;;;;;;;-5.70;100.00;97311.63;5011241;28;20062;-62
2022/01/17 05:52:14;;;;;;;24.77;19.45;;;;;;;-5.69;99.92;97315.91;5011272;28;20026;-62
2022/01/17 05:54:41;;;;;;;31.95;23.85;;;;;;;-5.69;99.88;97317.59;5011311;28;20037;-62
2022/01/17 05:57:06;;;;;;;32.45;24.17;;;;;;;-5.73;100.00;97303.94;5011167;28;20600;-62
2022/01/17 05:59:32;;;;;;;30.85;23.67;;;;;;;-5.77;100.00;97295.38;5011036;28;20105;-62
2022/01/17 06:01:57;;;;;;;33.65;23.02;;;;;;;-5.83;100.00;97299.66;5026852;28;20033;-62
2022/01/17 06:04:23;;;;;;;30.80;23.33;;;;;;;-5.88;100.00;97294.53;5011717;28;20034;-62
2022/01/17 06:06:48;;;;;;;30.45;22.75;;;;;;;-5.92;99.80;97290.28;5010645;28;20038;-62
2022/01/17 06:09:14;;;;;;;29.25;21.83;;;;;;;-5.92;100.00;97295.41;5011536;28;20481;-62
2022/01/17 06:11:39;;;;;;;29.80;21.70;;;;;;;-5.93;99.76;97303.94;5011563;28;20026;-62
2022/01/17 06:14:06;;;;;;;25.58;22.08;;;;;;;-5.96;99.76;97304.81;5011574;28;20501;-62
2022/01/17 06:16:32;;;;;;;28.08;21.33;;;;;;;-5.98;100.00;97315.94;5011317;28;20477;-62
2022/01/17 06:18:58;;;;;;;21.63;18.75;;;;;;;-5.98;100.00;97308.25;5010329;28;20043;-62
2022/01/17 06:21:24;;;;;;;24.65;18.75;;;;;;;-5.91;100.00;97308.25;5010061;28;20046;-62
2022/01/17 06:23:49;;;;;;;24.70;20.08;;;;;;;-5.97;100.00;97309.94;5011418;28;20041;-62
2022/01/17 06:26:15;;;;;;;26.25;21.27;;;;;;;-6.06;100.00;97314.28;5010399;28;20049;-62
2022/01/17 06:28:40;;;;;;;28.13;21.38;;;;;;;-6.08;100.00;97318.53;5011442;28;20036;-62
2022/01/17 06:31:05;;;;;;;29.48;20.33;;;;;;;-6.06;100.00;97315.97;5010684;28;20026;-61
2022/01/17 06:33:31;;;;;;;26.35;18.52;;;;;;;-5.98;100.00;97327.03;5011158;28;20037;-62
2022/01/17 06:35:56;;;;;;;25.90;19.17;;;;;;;-5.89;100.00;97331.31;5006515;28;20030;-61
2022/01/17 06:38:22;;;;;;;41.28;30.20;;;;;;;-5.84;100.00;97336.44;5007421;28;20068;-61
2022/01/17 06:40:47;;;;;;;46.58;29.05;;;;;;;-5.82;100.00;97338.16;5010391;28;20061;-62
2022/01/17 06:43:13;;;;;;;43.67;30.98;;;;;;;-5.85;100.00;97333.03;5010186;28;20041;-61
2022/01/17 06:45:39;;;;;;;48.42;31.55;;;;;;;-5.88;100.00;97321.91;5010809;28;20029;-62
2022/01/17 06:48:06;;;;;;;49.97;33.50;;;;;;;-5.92;100.00;97305.66;5010570;28;20057;-62
2022/01/17 06:50:32;;;;;;;47.88;32.35;;;;;;;-5.97;100.00;97310.81;5010566;28;20116;-61
2022/01/17 06:52:58;;;;;;;42.17;30.23;;;;;;;-6.03;100.00;97312.56;5011183;28;20026;-63
2022/01/17 06:55:23;;;;;;;39.83;28.95;;;;;;;-6.08;100.00;97313.41;5011132;28;20057;-61
2022/01/17 06:57:49;;;;;;;38.78;26.50;;;;;;;-6.10;99.46;97322.78;5011157;28;20025;-60
2022/01/17 07:00:14;;;;;;;36.70;23.67;;;;;;;-6.09;99.92;97313.41;5010235;28;20446;-59
2022/01/17 07:02:40;;;;;;;30.25;22.20;;;;;;;-6.05;100.00;97310.84;5009649;28;20026;-60
2022/01/17 07:05:06;;;;;;;28.88;22.55;;;;;;;-6.05;99.90;97310.84;5011105;28;20115;-60
2022/01/17 07:07:31;;;;;;;31.35;22.55;;;;;;;-6.03;100.00;97307.44;5011128;28;20428;-61
2022/01/17 07:09:57;;;;;;;32.28;21.88;;;;;;;-6.03;99.85;97304.88;5009868;28;20022;-59
2022/01/17 07:12:22;;;;;;;29.10;23.38;;;;;;;-6.07;99.89;97304.88;5009994;28;20068;-60
2022/01/17 07:14:48;;;;;;;28.80;22.63;;;;;;;-6.11;99.64;97305.69;5010228;28;20025;-60
2022/01/17 07:17:13;;;;;;;33.58;22.85;;;;;;;-6.11;99.60;97304.88;5008327;28;20814;-60
2022/01/17 07:19:39;;;;;;;28.65;23.17;;;;;;;-6.07;100.00;97306.56;5013296;28;20030;-61
2022/01/17 07:22:06;;;;;;;35.65;25.85;;;;;;;-6.02;100.00;97293.75;5014014;28;20026;-61
2022/01/17 07:24:32;;;;;;;32.92;24.23;;;;;;;-6.05;100.00;97292.91;5014184;28;20041;-62
2022/01/17 07:26:57;;;;;;;36.13;25.63;;;;;;;-6.06;100.00;97314.28;5013557;28;20030;-61
2022/01/17 07:29:24;;;;;;;39.92;29.85;;;;;;;-6.02;100.00;97324.53;5014236;28;20022;-61
2022/01/17 07:31:50;;;;;;;41.00;30.02;;;;;;;-5.63;99.42;97338.16;5013003;28;20033;-61
2022/01/17 07:34:15;;;;;;;35.85;27.67;;;;;;;-5.59;98.42;97355.25;5014180;28;20338;-61
2022/01/17 07:36:41;;;;;;;39.33;24.88;;;;;;;-5.47;98.37;97373.19;5014253;28;20118;-61
2022/01/17 07:39:06;;;;;;;35.33;23.80;;;;;;;-5.61;98.33;97385.19;5011554;28;20014;-61
2022/01/17 07:41:32;;;;;;;45.65;24.85;;;;;;;-5.58;98.94;97398.03;5013362;28;20428;-62
2022/01/17 07:43:58;;;;;;;67.07;33.60;;;;;;;-5.80;99.67;97423.69;5014143;28;20029;-62
2022/01/17 07:46:26;;;;;;;61.38;33.17;;;;;;;-5.87;100.00;97426.25;5014080;28;20053;-61
2022/01/17 07:49:12;;;;;;;79.40;35.80;;;;;;;-5.74;100.00;97430.53;5014085;28;20185;-61
2022/01/17 07:51:41;;;;;;;72.43;33.15;;;;;;;-6.09;100.00;97429.66;5013946;28;20473;-61
2022/01/17 07:54:10;;;;;;;74.20;32.45;;;;;;;-6.15;100.00;97423.69;5014010;28;20037;-61
2022/01/17 07:56:36;;;;;;;80.05;35.70;;;;;;;-6.26;100.00;97403.16;5013930;28;20397;-61
2022/01/17 07:59:03;;;;;;;82.60;40.22;;;;;;;-6.35;100.00;97392.00;5009033;28;20053;-61
2022/01/17 08:01:28;;;;;;;95.25;43.65;;;;;;;-6.34;100.00;97386.03;5012171;28;20112;-62
2022/01/17 08:03:54;;;;;;;82.60;39.53;;;;;;;-6.34;100.00;97386.03;5013661;28;20434;-56
2022/01/17 08:06:19;;;;;;;81.45;40.03;;;;;;;-6.29;100.00;97385.19;5012217;28;20064;-55
2022/01/17 08:08:45;;;;;;;82.70;44.25;;;;;;;-6.03;100.00;97389.50;5006723;28;20029;-57
2022/01/17 08:11:10;;;;;;;82.20;45.00;;;;;;;-6.19;100.00;97404.84;5012607;28;20037;-57
2022/01/17 08:13:36;;;;;;;105.85;50.60;;;;;;;-6.24;100.00;97409.13;5012543;28;20022;-57
2022/01/17 08:16:02;;;;;;;106.15;51.22;;;;;;;-6.25;100.00;97403.13;5011204;28;20018;-56
2022/01/17 08:18:28;;;;;;;104.82;50.38;;;;;;;-6.44;100.00;97407.38;5012546;28;20025;-56
2022/01/17 08:20:54;;;;;;;102.85;54.38;;;;;;;-6.51;100.00;97393.69;5009916;28;20022;-57
2022/01/17 08:23:19;;;;;;;101.93;51.50;;;;;;;-6.50;100.00;97384.28;5012678;28;20026;-57
2022/01/17 08:25:45;;;;;;;98.53;46.20;;;;;;;-6.25;100.00;97372.38;5013033;28;20398;-57
2022/01/17 08:28:10;;;;;;;78.40;39.85;;;;;;;-6.02;100.00;97368.13;5011052;28;20034;-58
2022/01/17 08:30:36;;;;;;;96.28;40.08;;;;;;;-6.33;100.00;97372.34;5011205;28;20101;-55
2022/01/17 08:33:02;;;;;;;77.65;42.50;;;;;;;-6.53;100.00;97374.88;5008520;28;20033;-58
2022/01/17 08:35:27;;;;;;;92.00;45.90;;;;;;;-6.52;100.00;97360.34;5012491;28;20048;-56
2022/01/17 08:37:53;;;;;;;82.07;42.72;;;;;;;-6.44;100.00;97365.50;5010853;28;20112;-56
2022/01/17 08:40:19;;;;;;;85.70;42.05;;;;;;;-6.50;100.00;97372.31;5011083;28;20030;-56
2022/01/17 08:42:46;;;;;;;78.35;42.95;;;;;;;-6.38;100.00;97366.38;5011776;28;20044;-56
2022/01/17 08:45:14;;;;;;;80.05;40.42;;;;;;;-6.42;100.00;97376.59;5012394;28;20103;-58
2022/01/17 08:47:39;;;;;;;89.00;46.00;;;;;;;-6.51;100.00;97380.88;5011520;28;20107;-55
2022/01/17 08:50:07;;;;;;;80.57;45.10;;;;;;;-6.51;100.00;97378.31;5011308;28;20437;-56
2022/01/17 08:52:32;;;;;;;99.13;48.95;;;;;;;-6.54;100.00;97378.28;5011251;28;20034;-54
2022/01/17 08:54:58;;;;;;;97.93;53.40;;;;;;;-6.60;100.00;97368.03;5010623;28;20589;-57
2022/01/17 08:57:25;;;;;;;86.95;46.22;;;;;;;-6.43;100.00;97362.06;5011362;28;20022;-57
2022/01/17 08:59:51;;;;;;;85.82;45.33;;;;;;;-6.61;100.00;97353.53;5011643;28;20025;-57
2022/01/17 09:02:18;;;;;;;94.38;46.83;;;;;;;-6.66;100.00;97353.50;5010778;28;20390;-57
2022/01/17 09:04:43;;;;;;;78.38;42.78;;;;;;;-6.65;100.00;97342.41;5012130;28;20034;-57
2022/01/17 09:07:10;;;;;;;79.70;43.03;;;;;;;-6.59;100.00;97343.25;5012026;28;20014;-57
2022/01/17 09:09:38;;;;;;;75.05;43.28;;;;;;;-6.52;100.00;97338.16;5012038;28;20018;-58
2022/01/17 09:12:05;;;;;;;84.60;47.58;;;;;;;-6.50;100.00;97327.91;5009993;28;20025;-55
2022/01/17 09:14:30;;;;;;;75.65;49.80;;;;;;;-6.44;100.00;97327.91;5010842;28;20052;-54
2022/01/17 09:16:56;;;;;;;86.22;53.38;;;;;;;-6.30;100.00;97330.50;5010000;28;20549;-58
2022/01/17 09:19:21;;;;;;;82.57;53.60;;;;;;;-6.26;100.00;97328.78;5011339;28;20036;-57
2022/01/17 09:21:47;;;;;;;72.93;48.58;;;;;;;-6.20;100.00;97326.22;5010791;28;20033;-58
2022/01/17 09:24:12;;;;;;;77.97;49.80;;;;;;;-6.20;100.00;97328.78;5010313;28;20105;-57
2022/01/17 09:26:37;;;;;;;85.82;55.85;;;;;;;-6.22;100.00;97338.19;5011441;28;20486;-56
2022/01/17 09:29:03;;;;;;;90.38;56.92;;;;;;;-5.73;100.00;97334.75;5009571;28;20057;-57
2022/01/17 09:31:28;;;;;;;90.63;55.13;;;;;;;-5.01;100.00;97344.81;5010184;28;20489;-58
2022/01/17 09:33:54;;;;;;;83.47;52.83;;;;;;;-4.47;100.00;97344.56;5008275;28;20041;-56
2022/01/17 09:36:21;;;;;;;78.95;51.40;;;;;;;-3.94;100.00;97336.47;5010421;28;20029;-56
2022/01/17 09:38:46;;;;;;;68.07;41.53;;;;;;;-3.45;97.24;97341.16;5010557;28;20022;-58
2022/01/17 09:41:11;;;;;;;56.40;36.83;;;;;;;-3.07;95.03;97353.66;5009285;28;20551;-57
2022/01/17 09:43:37;;;;;;;46.13;32.45;;;;;;;-2.61;92.97;97362.56;5010560;28;20036;-58
2022/01/17 09:46:03;;;;;;;52.45;37.80;;;;;;;-2.13;94.17;97390.28;5010046;28;20022;-57
2022/01/17 09:48:35;;;;;;;47.95;31.10;;;;;;;-1.83;90.61;97401.03;5009968;28;20041;-58
2022/01/17 09:51:14;;;;;;;36.50;25.65;;;;;;;-1.66;90.00;97400.78;5010187;28;20045;-58
2022/01/17 09:53:40;;;;;;;54.03;35.08;;;;;;;-1.68;88.99;97414.56;5007861;28;20060;-56
2022/01/17 09:56:10;;;;;;;35.75;24.58;;;;;;;-1.40;88.98;97408.97;5010514;28;20077;-56
2022/01/17 09:58:40;;;;;;;32.42;25.58;;;;;;;-1.33;87.81;97411.44;5010397;28;20026;-57
2022/01/17 10:01:07;;;;;;;39.85;30.67;;;;;;;-1.17;87.98;97439.59;5010042;28;20073;-58
2022/01/17 10:03:32;;;;;;;40.22;28.50;;;;;;;-1.17;87.38;97424.06;5010000;28;20061;-58
2022/01/17 10:05:57;;;;;;;32.40;25.15;;;;;;;-0.94;88.65;97415.03;5011001;28;20123;-58
2022/01/17 10:08:24;;;;;;;38.95;28.27;;;;;;;-0.65;86.15;97435.19;5010251;28;20045;-59
2022/01/17 10:11:00;;;;;;;37.50;27.38;;;;;;;-0.81;86.75;97424.28;5009070;28;20038;-57
2022/01/17 10:13:37;;;;;;;26.55;20.38;;;;;;;-0.75;86.43;97419.00;5008564;28;20041;-58
2022/01/17 10:16:11;;;;;;;38.38;26.02;;;;;;;-1.12;88.59;97452.44;5008162;28;20018;-58
2022/01/17 10:18:54;;;;;;;43.10;28.95;;;;;;;-1.47;89.16;97437.47;5010377;28;20745;-58
2022/01/17 10:21:48;;;;;;;47.70;30.50;;;;;;;-1.47;90.66;97437.47;5010676;28;20029;-57
2022/01/17 10:35:13;;;;;;;31.98;25.00;;;;;;;-0.19;89.18;97429.94;5008330;28;20110;-58
2022/01/17 10:37:40;;;;;;;32.58;21.77;;;;;;;0.10;87.28;97425.88;5008973;28;20034;-59
2022/01/17 10:40:13;;;;;;;23.95;19.98;;;;;;;0.28;84.85;97422.84;5008745;28;20117;-59
2022/01/17 10:42:48;;;;;;;25.88;21.48;;;;;;;0.37;83.16;97414.00;5009200;28;20092;-57
2022/01/17 10:45:38;;;;;;;22.45;19.83;;;;;;;0.62;81.53;97408.22;5009123;28;20026;-60
2022/01/17 10:48:04;;;;;;;18.27;16.13;;;;;;;0.94;82.44;97408.28;5000136;28;20045;-59
2022/01/17 10:50:39;;;;;;;17.50;15.65;;;;;;;0.98;78.93;97410.78;5000405;28;20038;-59
2022/01/17 10:53:12;;;;;;;29.88;24.05;;;;;;;1.14;78.32;97410.38;5010370;28;20034;-59
2022/01/17 10:55:41;;;;;;;19.85;15.30;;;;;;;1.16;78.11;97403.41;5014585;28;20034;-59
2022/01/17 10:58:17;;;;;;;15.45;11.68;;;;;;;1.40;76.97;97388.03;5013092;28;20038;-58
2022/01/17 11:00:48;;;;;;;13.27;10.45;;;;;;;1.46;74.55;97387.84;5012218;28;20050;-59
2022/01/17 11:03:19;;;;;;;12.00;10.73;;;;;;;1.66;74.37;97382.09;5012907;28;20026;-58
2022/01/17 11:05:47;;;;;;;16.08;11.90;;;;;;;1.77;72.58;97381.78;5013361;28;20029;-58
2022/01/17 11:08:15;;;;;;;15.75;13.35;;;;;;;1.96;71.92;97361.28;5012858;28;20076;-58
2022/01/17 11:10:43;;;;;;;14.88;10.27;;;;;;;2.37;71.49;97355.66;5013637;28;20026;-58
2022/01/17 11:13:11;;;;;;;13.30;10.73;;;;;;;2.41;68.96;97354.66;5011712;28;20038;-58
2022/01/17 11:15:39;;;;;;;13.35;10.57;;;;;;;2.49;68.11;97359.59;5011921;28;20037;-59
2022/01/17 11:18:21;;;;;;;15.80;11.70;;;;;;;2.68;68.33;97359.84;5012809;28;20065;-59
2022/01/17 11:20:49;;;;;;;12.93;8.40;;;;;;;2.94;68.30;97360.69;5012052;28;20030;-56
2022/01/17 11:23:14;;;;;;;9.05;7.50;;;;;;;3.10;68.78;97355.78;5011422;28;20058;-57
2022/01/17 11:25:44;;;;;;;8.75;7.75;;;;;;;3.25;68.15;97353.56;5012906;28;20537;-56
2022/01/17 11:28:11;;;;;;;10.18;7.80;;;;;;;3.32;68.58;97339.41;5013608;28;20014;-55
2022/01/17 11:30:39;;;;;;;9.65;8.30;;;;;;;3.50;65.35;97340.47;5010579;28;20014;-56
2022/01/17 11:33:08;;;;;;;10.32;9.32;;;;;;;3.64;66.80;97334.72;5013238;28;20017;-55
2022/01/17 11:35:37;;;;;;;12.68;8.82;;;;;;;3.73;63.08;97333.53;5012680;28;20021;-57
2022/01/17 11:38:04;;;;;;;9.32;7.65;;;;;;;4.07;63.10;97323.53;5011336;28;20022;-57
2022/01/17 11:40:33;;;;;;;7.75;6.97;;;;;;;4.00;62.43;97304.72;5012833;28;20563;-59
2022/01/17 11:42:59;;;;;;;7.47;6.72;;;;;;;3.99;62.17;97293.44;5010818;28;20028;-58
2022/01/17 11:45:25;;;;;;;7.90;7.00;;;;;;;4.21;61.13;97282.13;5012914;28;20445;-58
2022/01/17 11:47:53;;;;;;;10.52;7.97;;;;;;;4.52;60.44;97282.59;5013289;28;20113;-58
2022/01/17 11:50:27;;;;;;;9.07;7.90;;;;;;;5.02;59.81;97274.31;5010105;28;20022;-57
2022/01/17 11:52:53;;;;;;;10.57;8.68;;;;;;;5.39;57.35;97274.41;5012839;28;20049;-57